Time;durP1;ratioP1;P1;durP2;ratioP2;P2;SDS_P1;SDS_P2;PMS_P1;PMS_P2;Temp;Humidity;BMP_temperature;BMP_pressure;BME280_temperature;BME280_humidity;BME280_pressure;Samples;Min_cycle;Max_cycle;Signal;HPM_P1;HPM_P2
2022/12/08 00:01:16;;;;;;;19.08;17.08;;;;;;;2.90;100.00;101072.88;5106665;28;20032;-60
2022/12/08 00:03:42;;;;;;;17.60;15.80;;;;;;;2.93;100.00;101064.38;5110036;28;20031;-60
2022/12/08 00:09:23;;;;;;;16.25;14.65;;;;;;;2.94;100.00;101061.50;5109846;28;20555;-60
2022/12/08 00:11:53;;;;;;;16.05;14.45;;;;;;;2.92;100.00;101070.81;5110673;28;20019;-61
2022/12/08 00:14:21;;;;;;;15.32;13.80;;;;;;;2.90;100.00;101053.88;5109767;28;20032;-62
2022/12/08 00:16:46;;;;;;;16.48;14.88;;;;;;;2.91;100.00;101051.00;5110312;28;20034;-60
2022/12/08 00:19:11;;;;;;;16.48;14.77;;;;;;;2.96;100.00;101048.59;5108789;28;20746;-60
2022/12/08 00:21:37;;;;;;;16.33;14.68;;;;;;;2.92;100.00;101044.53;5108225;28;20118;-60
2022/12/08 00:24:02;;;;;;;15.05;13.63;;;;;;;2.91;100.00;101037.44;5105309;28;20028;-60
2022/12/08 00:26:27;;;;;;;15.73;14.23;;;;;;;2.94;100.00;101033.50;5109252;28;20036;-61
2022/12/08 00:28:52;;;;;;;15.27;13.77;;;;;;;2.93;100.00;101029.09;5110267;28;20028;-60
2022/12/08 00:31:18;;;;;;;15.23;13.48;;;;;;;2.99;100.00;101036.53;5109889;28;20378;-60
2022/12/08 00:33:43;;;;;;;15.50;14.00;;;;;;;2.93;100.00;101032.66;5108994;28;20040;-63
2022/12/08 00:36:11;;;;;;;15.25;13.65;;;;;;;2.95;100.00;101027.94;5107645;28;20062;-63
2022/12/08 00:38:37;;;;;;;;;;;;;;;3.07;100.00;101026.50;5110006;28;20160;-61
2022/12/08 00:41:07;;;;;;;14.75;13.13;;;;;;;2.93;100.00;101031.81;5108213;28;20023;-61
2022/12/08 00:43:33;;;;;;;14.38;12.85;;;;;;;2.94;100.00;101028.06;5107725;28;20042;-60
2022/12/08 00:45:58;;;;;;;15.27;13.77;;;;;;;2.99;100.00;101018.41;5110780;28;20028;-60
2022/12/08 00:48:23;;;;;;;14.40;13.00;;;;;;;2.98;100.00;101022.13;5109289;28;20557;-60
2022/12/08 00:50:48;;;;;;;15.23;13.63;;;;;;;2.93;100.00;101015.53;5108793;28;20472;-59
2022/12/08 00:53:14;;;;;;;14.60;13.10;;;;;;;2.97;100.00;101017.72;5109591;28;20438;-61
2022/12/08 00:55:39;;;;;;;14.52;13.02;;;;;;;2.96;100.00;101015.19;5109281;28;20058;-59
2022/12/08 00:58:04;;;;;;;16.33;13.23;;;;;;;2.96;100.00;101009.78;5109205;28;20023;-60
2022/12/08 01:00:29;;;;;;;14.57;13.07;;;;;;;2.93;100.00;101010.97;5109589;28;20039;-59
2022/12/08 01:02:55;;;;;;;14.55;13.02;;;;;;;3.02;100.00;101011.78;5108491;28;20172;-60
2022/12/08 01:05:20;;;;;;;14.65;13.02;;;;;;;2.97;100.00;101004.16;5109849;28;20028;-60
2022/12/08 01:07:47;;;;;;;14.65;13.15;;;;;;;2.99;100.00;100995.84;5108861;28;20462;-60
2022/12/08 01:10:13;;;;;;;14.88;13.43;;;;;;;3.00;100.00;101001.09;5109197;28;20151;-61
2022/12/08 01:12:38;;;;;;;14.57;13.07;;;;;;;2.99;100.00;101003.97;5109934;28;20031;-61
2022/12/08 01:15:03;;;;;;;14.05;12.63;;;;;;;3.02;100.00;101003.63;5109010;28;20028;-61
2022/12/08 01:17:29;;;;;;;13.13;11.82;;;;;;;2.99;100.00;100999.44;5110019;28;20484;-61
2022/12/08 01:19:54;;;;;;;14.10;12.18;;;;;;;3.01;100.00;101000.06;5108261;28;20076;-61
2022/12/08 01:22:19;;;;;;;14.18;12.77;;;;;;;3.03;100.00;100999.88;5101633;28;20032;-60
2022/12/08 01:24:45;;;;;;;14.32;12.90;;;;;;;3.00;100.00;100995.69;5106781;28;20071;-61
2022/12/08 01:27:10;;;;;;;15.05;13.50;;;;;;;3.01;100.00;101002.78;5101121;28;20035;-60
2022/12/08 01:29:35;;;;;;;13.95;12.55;;;;;;;3.08;100.00;101008.34;5109048;28;20023;-61
2022/12/08 01:32:01;;;;;;;14.30;12.80;;;;;;;3.04;100.00;100997.03;5107980;28;20055;-64
2022/12/08 01:34:26;;;;;;;13.82;12.48;;;;;;;3.04;100.00;101002.44;5109639;28;20104;-61
2022/12/08 01:36:51;;;;;;;14.70;13.07;;;;;;;3.06;100.00;100989.53;5109088;28;20024;-61
2022/12/08 01:39:17;;;;;;;14.23;12.50;;;;;;;3.07;100.00;100993.09;5102529;28;20035;-61
2022/12/08 01:41:44;;;;;;;12.20;10.90;;;;;;;3.18;100.00;100989.13;5105142;28;20515;-61
2022/12/08 01:44:09;;;;;;;13.82;12.15;;;;;;;3.11;100.00;100991.72;5108734;28;20157;-60
2022/12/08 01:46:40;;;;;;;12.70;11.50;;;;;;;3.10;100.00;100990.03;5108860;28;20091;-63
2022/12/08 01:49:21;;;;;;;13.48;12.07;;;;;;;3.10;100.00;100990.03;5108544;28;20662;-60
2022/12/08 01:51:56;;;;;;;13.07;11.77;;;;;;;3.08;100.00;100976.63;5107636;28;20102;-61
2022/12/08 01:54:27;;;;;;;12.02;10.82;;;;;;;3.10;100.00;100971.88;5108085;28;20038;-62
2022/12/08 01:56:57;;;;;;;12.70;11.30;;;;;;;3.08;100.00;100970.34;5092681;28;20186;-61
2022/12/08 01:59:23;;;;;;;12.50;11.30;;;;;;;3.09;100.00;100977.47;5106881;28;20032;-61
2022/12/08 02:01:48;;;;;;;11.65;10.50;;;;;;;3.06;100.00;100962.41;5107647;28;20035;-61
2022/12/08 02:04:13;;;;;;;12.40;10.98;;;;;;;3.07;100.00;100966.78;5107993;28;20031;-60
2022/12/08 02:06:42;;;;;;;11.23;10.02;;;;;;;3.07;100.00;100955.94;5108963;28;20026;-61
2022/12/08 02:09:07;;;;;;;;;;;;;;;3.12;100.00;100952.69;5108367;28;20027;-59
2022/12/08 02:11:32;;;;;;;11.00;9.68;;;;;;;3.04;100.00;100953.59;5108137;28;20313;-60
2022/12/08 02:13:59;;;;;;;11.30;10.10;;;;;;;3.05;100.00;100954.44;5108138;28;20039;-60
2022/12/08 02:16:59;;;;;;;11.57;10.45;;;;;;;3.04;100.00;100953.59;5105349;28;20498;-60
2022/12/08 02:19:49;;;;;;;12.20;10.68;;;;;;;3.05;100.00;100955.28;5095929;28;20028;-60
2022/12/08 02:22:27;;;;;;;11.57;10.27;;;;;;;3.02;100.00;100952.09;5108220;28;20035;-61
2022/12/08 02:25:17;;;;;;;12.15;10.40;;;;;;;3.00;100.00;100946.84;5107454;28;20084;-60
2022/12/08 02:28:09;;;;;;;11.88;10.68;;;;;;;3.03;100.00;100941.03;5108229;28;20032;-63
2022/12/08 02:31:00;;;;;;;11.55;10.20;;;;;;;3.01;100.00;100932.25;5108271;28;20059;-61
2022/12/08 02:33:59;;;;;;;11.18;9.90;;;;;;;3.01;100.00;100932.25;5106907;28;20047;-61
2022/12/08 02:36:36;;;;;;;11.23;9.98;;;;;;;2.97;100.00;100925.50;5108880;28;20093;-61
2022/12/08 02:39:21;;;;;;;11.83;9.47;;;;;;;3.07;100.00;100923.38;5107785;28;20027;-61
2022/12/08 02:41:58;;;;;;;11.68;10.18;;;;;;;2.99;100.00;100918.03;5104796;28;20312;-61
2022/12/08 02:44:36;;;;;;;10.23;9.23;;;;;;;3.06;100.00;100913.56;5108601;28;20027;-60
2022/12/08 02:47:08;;;;;;;11.23;9.88;;;;;;;2.96;100.00;100915.66;5105437;28;20035;-60
2022/12/08 02:49:35;;;;;;;10.32;8.77;;;;;;;2.96;100.00;100915.66;5107362;28;20023;-61
2022/12/08 02:52:26;;;;;;;10.60;9.50;;;;;;;2.95;100.00;100910.44;5107438;28;20027;-60
2022/12/08 02:55:03;;;;;;;9.30;8.30;;;;;;;2.96;100.00;100906.69;5105763;28;20134;-59
2022/12/08 02:57:55;;;;;;;9.52;8.48;;;;;;;2.99;100.00;100900.88;5088664;28;20397;-59
2022/12/08 03:00:23;;;;;;;9.18;7.93;;;;;;;2.96;100.00;100898.53;5087597;28;20049;-61
2022/12/08 03:02:58;;;;;;;9.00;7.85;;;;;;;3.00;100.00;100898.00;5106483;28;20476;-60
2022/12/08 03:05:30;;;;;;;9.95;8.18;;;;;;;3.00;100.00;100902.59;5105618;28;20683;-60
2022/12/08 03:08:00;;;;;;;8.32;7.45;;;;;;;2.99;100.00;100912.59;5106993;28;20028;-61
2022/12/08 03:10:35;;;;;;;8.50;7.60;;;;;;;3.01;100.00;100907.81;5092407;28;20684;-60
2022/12/08 03:13:11;;;;;;;9.18;7.25;;;;;;;3.00;100.00;100908.88;5096184;28;20493;-61
2022/12/08 03:15:37;;;;;;;8.40;6.75;;;;;;;3.01;100.00;100905.13;5108094;28;20043;-63
2022/12/08 03:18:07;;;;;;;7.97;6.53;;;;;;;3.03;100.00;100908.47;5105276;28;20027;-61
2022/12/08 03:20:33;;;;;;;8.50;6.55;;;;;;;3.04;100.00;100904.78;5098228;28;20020;-62
2022/12/08 03:23:00;;;;;;;7.90;6.60;;;;;;;3.07;100.00;100904.38;5094221;28;20379;-59
2022/12/08 03:25:31;;;;;;;8.30;6.20;;;;;;;3.09;100.00;100894.22;5104359;28;20023;-61
2022/12/08 03:27:58;;;;;;;7.25;5.90;;;;;;;3.14;100.00;100893.66;5108248;28;20028;-60
2022/12/08 03:30:23;;;;;;;9.43;6.38;;;;;;;3.11;100.00;100884.00;5107885;28;20020;-60
2022/12/08 03:33:00;;;;;;;7.35;5.68;;;;;;;3.11;100.00;100881.31;5107153;28;20035;-59
2022/12/08 03:35:30;;;;;;;7.35;5.97;;;;;;;3.09;100.00;100875.22;5087922;28;20020;-60
2022/12/08 03:38:13;;;;;;;7.40;5.88;;;;;;;3.18;100.00;100872.44;5109771;28;20501;-61
2022/12/08 03:40:39;;;;;;;7.60;6.00;;;;;;;3.13;100.00;100860.25;5108797;28;20670;-60
2022/12/08 03:43:05;;;;;;;6.72;5.55;;;;;;;3.12;100.00;100861.28;5108625;28;20046;-61
2022/12/08 03:45:30;;;;;;;7.68;5.85;;;;;;;3.18;100.00;100858.84;5109661;28;20598;-60
2022/12/08 03:47:56;;;;;;;8.25;6.45;;;;;;;3.13;100.00;100857.53;5110953;28;20415;-60
2022/12/08 03:50:22;;;;;;;7.80;5.95;;;;;;;3.11;100.00;100850.63;5111788;28;20050;-60
2022/12/08 03:52:47;;;;;;;9.15;6.55;;;;;;;3.12;100.00;100846.88;5110424;28;20032;-61
2022/12/08 03:55:13;;;;;;;8.13;5.88;;;;;;;3.14;100.00;100852.94;5106547;28;20047;-61
2022/12/08 03:57:38;;;;;;;7.93;6.90;;;;;;;3.12;100.00;100847.72;5111831;28;20035;-60
2022/12/08 04:00:05;;;;;;;8.82;6.93;;;;;;;3.15;100.00;100845.69;5110482;28;20027;-61
2022/12/08 04:02:31;;;;;;;8.95;6.65;;;;;;;3.14;100.00;100839.38;5107362;28;20024;-61
2022/12/08 04:04:56;;;;;;;8.48;7.55;;;;;;;3.19;100.00;100841.53;5111378;28;20020;-62
2022/12/08 04:07:21;;;;;;;11.55;7.47;;;;;;;3.15;100.00;100834.81;5111666;28;20028;-60
2022/12/08 04:09:46;;;;;;;9.20;7.55;;;;;;;3.13;100.00;100838.53;5110119;28;20038;-60
2022/12/08 04:12:12;;;;;;;10.77;7.97;;;;;;;3.20;100.00;100837.81;5109226;28;20435;-61
2022/12/08 04:14:37;;;;;;;9.63;8.57;;;;;;;3.24;100.00;100837.25;5092536;28;20031;-60
2022/12/08 04:17:02;;;;;;;10.00;9.00;;;;;;;3.17;100.00;100828.16;5110833;28;20030;-60
2022/12/08 04:19:28;;;;;;;10.82;9.30;;;;;;;3.18;100.00;100826.28;5108860;28;20111;-61
2022/12/08 04:21:53;;;;;;;11.23;10.02;;;;;;;3.20;100.00;100821.53;5105742;28;20043;-63
2022/12/08 04:24:18;;;;;;;11.50;10.23;;;;;;;3.22;100.00;100823.03;5090575;28;20032;-60
2022/12/08 04:26:44;;;;;;;12.13;10.43;;;;;;;3.16;100.00;100820.22;5102510;28;20024;-60
2022/12/08 04:29:10;;;;;;;12.57;10.93;;;;;;;3.16;100.00;100818.34;5107762;28;20042;-59
2022/12/08 04:31:35;;;;;;;12.50;11.23;;;;;;;3.18;100.00;100823.56;5109804;28;20036;-61
2022/12/08 04:34:00;;;;;;;12.18;10.88;;;;;;;3.16;100.00;100821.06;5110721;28;20118;-60
2022/12/08 04:36:25;;;;;;;14.07;10.90;;;;;;;3.19;100.00;100820.66;5110824;28;20028;-60
2022/12/08 04:38:51;;;;;;;13.63;12.23;;;;;;;3.18;100.00;100826.28;5091359;28;20138;-61
2022/12/08 04:41:16;;;;;;;13.27;11.88;;;;;;;3.18;100.00;100820.88;5106626;28;20031;-60
2022/12/08 04:43:43;;;;;;;12.10;10.80;;;;;;;3.19;100.00;100814.41;5108817;28;20069;-61
2022/12/08 04:46:08;;;;;;;14.20;11.30;;;;;;;3.23;100.00;100824.72;5109564;28;20107;-59
2022/12/08 04:48:36;;;;;;;12.93;11.63;;;;;;;3.20;100.00;100818.84;5110044;28;20572;-60
2022/12/08 04:51:02;;;;;;;14.30;12.35;;;;;;;3.20;100.00;100822.38;5110388;28;20054;-64
2022/12/08 04:53:27;;;;;;;13.60;12.20;;;;;;;3.19;100.00;100812.53;5110616;28;20309;-61
2022/12/08 04:55:52;;;;;;;13.38;11.98;;;;;;;3.20;100.00;100816.97;5097314;28;20035;-61
2022/12/08 04:58:19;;;;;;;14.70;12.27;;;;;;;3.17;100.00;100817.31;5100847;28;20064;-61
2022/12/08 05:00:45;;;;;;;13.18;11.85;;;;;;;3.16;100.00;100821.06;5096097;28;20023;-60
2022/12/08 05:03:11;;;;;;;12.50;11.20;;;;;;;3.15;100.00;100819.38;5108999;28;20081;-60
2022/12/08 05:05:37;;;;;;;12.65;10.52;;;;;;;3.27;100.00;100814.34;5109858;28;20027;-60
2022/12/08 05:08:02;;;;;;;13.40;11.25;;;;;;;3.21;100.00;100812.38;5110084;28;20056;-61
2022/12/08 05:10:28;;;;;;;13.30;11.63;;;;;;;3.19;100.00;100814.41;5109139;28;20015;-59
2022/12/08 05:12:53;;;;;;;14.40;12.88;;;;;;;3.22;100.00;100830.34;5108201;28;20042;-61
2022/12/08 05:15:18;;;;;;;13.68;11.70;;;;;;;3.22;100.00;100825.75;5109690;28;20492;-59
2022/12/08 05:17:44;;;;;;;13.75;11.55;;;;;;;3.18;100.00;100826.28;5109151;28;20039;-59
2022/12/08 05:20:10;;;;;;;11.00;9.80;;;;;;;3.26;100.00;100821.66;5107436;28;20028;-60
2022/12/08 05:22:35;;;;;;;9.43;7.00;;;;;;;3.21;100.00;100817.78;5091301;28;20028;-61
2022/12/08 05:25:00;;;;;;;9.35;6.72;;;;;;;3.18;100.00;100829.00;5109301;28;20441;-60
2022/12/08 05:27:26;;;;;;;9.07;7.30;;;;;;;3.05;100.00;100818.78;5109752;28;20038;-60
2022/12/08 05:29:51;;;;;;;8.93;6.88;;;;;;;3.09;100.00;100815.53;5109526;28;20031;-62
2022/12/08 05:32:16;;;;;;;9.55;6.50;;;;;;;3.07;100.00;100817.56;5109210;28;20445;-60
2022/12/08 05:34:42;;;;;;;8.07;5.45;;;;;;;3.02;100.00;100824.56;5110059;28;20126;-62
2022/12/08 05:37:07;;;;;;;7.95;5.82;;;;;;;2.99;100.00;100817.66;5105699;28;20079;-59
2022/12/08 05:39:32;;;;;;;9.05;6.68;;;;;;;2.95;100.00;100816.31;5109588;28;20027;-61
2022/12/08 05:41:58;;;;;;;7.88;5.53;;;;;;;2.95;100.00;100805.47;5109860;28;20158;-61
2022/12/08 05:44:24;;;;;;;8.75;5.18;;;;;;;2.97;100.00;100803.41;5096704;28;20020;-61
2022/12/08 05:46:49;;;;;;;7.85;4.97;;;;;;;2.93;100.00;100801.22;5094980;28;20055;-62
2022/12/08 05:49:15;;;;;;;5.25;4.30;;;;;;;2.89;100.00;100797.19;5107825;28;20023;-60
2022/12/08 05:51:40;;;;;;;6.63;4.13;;;;;;;2.88;100.00;100796.34;5107486;28;20023;-60
2022/12/08 05:54:05;;;;;;;5.20;4.07;;;;;;;2.91;100.00;100793.28;5108316;28;20098;-61
2022/12/08 05:56:30;;;;;;;5.88;3.85;;;;;;;2.88;100.00;100787.38;5108873;28;20028;-60
2022/12/08 05:58:56;;;;;;;6.30;4.60;;;;;;;2.86;100.00;100791.13;5107200;28;20043;-61
2022/12/08 06:01:27;;;;;;;5.78;4.05;;;;;;;2.86;100.00;100793.81;5108185;28;20039;-61
2022/12/08 06:03:53;;;;;;;4.55;3.97;;;;;;;2.88;100.00;100793.63;5106754;28;20043;-59
2022/12/08 06:06:19;;;;;;;5.95;3.95;;;;;;;2.87;100.00;100789.25;5106141;28;20032;-59
2022/12/08 06:08:45;;;;;;;5.70;3.90;;;;;;;2.86;100.00;100790.28;5106312;28;20049;-60
2022/12/08 06:11:18;;;;;;;4.90;3.78;;;;;;;2.91;100.00;100793.28;5105655;28;20042;-59
2022/12/08 06:13:43;;;;;;;7.25;4.05;;;;;;;2.90;100.00;100785.34;5109178;28;20107;-60
2022/12/08 06:16:08;;;;;;;6.47;4.35;;;;;;;2.89;100.00;100789.94;5108345;28;20161;-59
2022/12/08 06:18:33;;;;;;;5.45;3.70;;;;;;;2.92;100.00;100784.13;5108185;28;20458;-62
2022/12/08 06:21:03;;;;;;;5.15;3.80;;;;;;;2.90;100.00;100788.91;5109391;28;20034;-60
2022/12/08 06:23:29;;;;;;;5.95;4.03;;;;;;;2.95;100.00;100783.75;5109165;28;20015;-61
2022/12/08 06:25:54;;;;;;;4.70;3.65;;;;;;;2.92;100.00;100784.13;5108099;28;20023;-60
2022/12/08 06:28:19;;;;;;;4.47;3.60;;;;;;;2.92;100.00;100778.69;5108519;28;20059;-61
2022/12/08 06:30:44;;;;;;;5.70;3.78;;;;;;;2.96;100.00;100773.75;5091163;28;20512;-61
2022/12/08 06:33:10;;;;;;;6.68;4.13;;;;;;;2.94;100.00;100778.50;5087400;28;20060;-62
2022/12/08 06:35:36;;;;;;;5.40;3.63;;;;;;;3.00;100.00;100777.78;5087977;28;20031;-63
2022/12/08 06:38:01;;;;;;;5.15;3.78;;;;;;;2.94;100.00;100771.22;5069679;28;20088;-64
2022/12/08 06:40:26;;;;;;;4.72;3.40;;;;;;;2.94;100.00;100771.22;5088247;28;20024;-60
2022/12/08 06:42:51;;;;;;;5.55;3.70;;;;;;;2.95;100.00;100778.34;5088004;28;20619;-61
2022/12/08 06:45:17;;;;;;;5.35;3.40;;;;;;;2.97;100.00;100775.44;5088235;28;20059;-60
2022/12/08 06:47:43;;;;;;;4.53;3.55;;;;;;;2.96;100.00;100782.72;5087433;28;20050;-61
2022/12/08 06:50:10;;;;;;;5.13;3.55;;;;;;;2.97;100.00;100784.41;5087513;28;20118;-63
2022/12/08 06:52:35;;;;;;;4.75;3.17;;;;;;;2.96;100.00;100782.72;5088005;28;20028;-60
2022/12/08 06:55:01;;;;;;;5.55;3.40;;;;;;;2.96;100.00;100785.44;5069380;28;20044;-61
2022/12/08 06:57:26;;;;;;;5.35;3.80;;;;;;;2.97;100.00;100776.28;5088240;28;20031;-60
2022/12/08 06:59:51;;;;;;;5.80;3.60;;;;;;;2.99;100.00;100778.78;5100459;28;20498;-60
2022/12/08 07:02:16;;;;;;;5.55;3.70;;;;;;;2.99;100.00;100773.38;5107640;28;20028;-60
2022/12/08 07:04:42;;;;;;;4.88;3.25;;;;;;;2.99;100.00;100771.53;5107979;28;20028;-61
2022/12/08 07:07:07;;;;;;;3.40;2.97;;;;;;;3.02;100.00;100765.72;5108024;28;20020;-59
2022/12/08 07:09:33;;;;;;;4.97;3.20;;;;;;;3.03;100.00;100772.81;5107784;28;20055;-60
2022/12/08 07:11:58;;;;;;;3.03;2.67;;;;;;;3.02;100.00;100764.88;5097137;28;20024;-63
2022/12/08 07:14:24;;;;;;;4.82;3.42;;;;;;;2.98;100.00;100775.25;5087583;28;20047;-59
2022/12/08 07:16:50;;;;;;;4.15;3.10;;;;;;;2.99;100.00;100771.53;5068480;28;20631;-60
2022/12/08 07:19:16;;;;;;;5.38;3.38;;;;;;;2.96;100.00;100774.59;5087227;28;20055;-60
2022/12/08 07:21:41;;;;;;;3.28;2.92;;;;;;;2.96;100.00;100771.88;5087853;28;20063;-60
2022/12/08 07:24:07;;;;;;;5.85;3.30;;;;;;;3.08;100.00;100769.56;5086487;28;20016;-60
2022/12/08 07:26:32;;;;;;;4.22;3.15;;;;;;;2.96;100.00;100774.59;5087592;28;20036;-60
2022/12/08 07:28:59;;;;;;;4.68;3.30;;;;;;;2.98;100.00;100777.94;5087241;28;20051;-63
2022/12/08 07:31:25;;;;;;;4.85;3.08;;;;;;;2.99;100.00;100784.22;5086814;28;20028;-62
2022/12/08 07:33:51;;;;;;;6.20;3.60;;;;;;;2.98;100.00;100779.81;5086636;28;20044;-62
2022/12/08 07:36:17;;;;;;;4.00;3.60;;;;;;;2.99;100.00;100776.09;5087070;28;20046;-62
2022/12/08 07:38:43;;;;;;;5.45;3.58;;;;;;;2.99;100.00;100776.94;5086601;28;20166;-60
2022/12/08 07:41:16;;;;;;;4.38;3.35;;;;;;;3.02;100.00;100773.84;5087387;28;20037;-59
2022/12/08 07:43:42;;;;;;;5.07;3.60;;;;;;;3.01;100.00;100777.59;5086889;28;20024;-61
2022/12/08 07:46:11;;;;;;;4.82;3.22;;;;;;;3.02;100.00;100773.84;5086590;28;20035;-61
2022/12/08 07:48:36;;;;;;;6.05;4.18;;;;;;;3.03;100.00;100767.41;5087114;28;20381;-60
2022/12/08 07:51:03;;;;;;;5.68;3.80;;;;;;;3.03;100.00;100777.41;5087645;28;20028;-64
2022/12/08 07:53:29;;;;;;;6.50;4.63;;;;;;;3.03;100.00;100780.13;5087546;28;20024;-59
2022/12/08 07:55:55;;;;;;;7.22;4.57;;;;;;;3.05;100.00;100791.66;5086415;28;20406;-61
2022/12/08 07:58:20;;;;;;;5.78;4.70;;;;;;;3.05;100.00;100792.50;5087219;28;20123;-59
2022/12/08 08:00:45;;;;;;;7.00;5.45;;;;;;;3.00;100.00;100791.34;5086155;28;20371;-59
2022/12/08 08:03:11;;;;;;;7.47;4.65;;;;;;;2.97;100.00;100789.00;5088233;28;20031;-63
2022/12/08 08:05:36;;;;;;;11.88;6.05;;;;;;;2.95;100.00;100786.47;5107302;28;20035;-60
2022/12/08 08:08:02;;;;;;;7.07;5.45;;;;;;;2.91;100.00;100785.16;5106710;28;20704;-62
2022/12/08 08:10:27;;;;;;;6.50;5.47;;;;;;;2.92;100.00;100786.00;5107312;28;20027;-59
2022/12/08 08:12:53;;;;;;;6.85;5.97;;;;;;;2.91;100.00;100790.56;5106855;28;20019;-62
2022/12/08 08:15:20;;;;;;;6.22;5.57;;;;;;;2.93;100.00;100793.94;5107783;28;20034;-60
2022/12/08 08:17:48;;;;;;;7.72;6.18;;;;;;;2.91;100.00;100795.16;5103191;28;20032;-63
2022/12/08 08:20:13;;;;;;;7.18;6.05;;;;;;;2.92;100.00;100792.25;5106496;28;20032;-60
2022/12/08 08:22:39;;;;;;;7.75;5.50;;;;;;;2.94;100.00;100792.94;5089742;28;20027;-60
2022/12/08 08:25:04;;;;;;;7.10;5.85;;;;;;;2.97;100.00;100789.00;5110970;28;20028;-60
2022/12/08 08:27:30;;;;;;;6.60;5.95;;;;;;;2.96;100.00;100796.28;5111991;28;20031;-59
2022/12/08 08:29:55;;;;;;;6.75;5.03;;;;;;;2.95;100.00;100791.91;5110389;28;20424;-61
2022/12/08 08:32:20;;;;;;;6.03;5.20;;;;;;;2.98;100.00;100793.38;5109035;28;20476;-60
2022/12/08 08:34:45;;;;;;;7.10;5.45;;;;;;;2.97;100.00;100795.25;5110857;28;20043;-59
2022/12/08 08:37:11;;;;;;;5.90;4.80;;;;;;;3.09;100.00;100792.94;5111017;28;20028;-59
2022/12/08 08:39:36;;;;;;;6.20;4.90;;;;;;;2.98;100.00;100791.53;5110496;28;20746;-60
2022/12/08 08:42:02;;;;;;;6.47;5.10;;;;;;;2.99;100.00;100793.22;5110735;28;20023;-63
2022/12/08 08:44:27;;;;;;;6.63;5.40;;;;;;;2.99;100.00;100786.94;5109600;28;20436;-61
2022/12/08 08:46:52;;;;;;;6.43;5.32;;;;;;;2.97;100.00;100789.00;5108009;28;20122;-59
2022/12/08 08:49:18;;;;;;;7.32;5.32;;;;;;;2.96;100.00;100788.16;5108533;28;20067;-63
2022/12/08 08:51:43;;;;;;;6.30;5.15;;;;;;;2.94;100.00;100795.66;5107416;28;20023;-61
2022/12/08 08:54:08;;;;;;;6.05;5.30;;;;;;;2.95;100.00;100797.31;5108391;28;20114;-61
2022/12/08 08:56:33;;;;;;;6.63;5.93;;;;;;;2.95;100.00;100793.78;5109443;28;20043;-60
2022/12/08 08:58:59;;;;;;;6.72;5.40;;;;;;;2.95;100.00;100801.91;5106230;28;20373;-63
2022/12/08 09:01:26;;;;;;;6.63;5.32;;;;;;;2.95;100.00;100797.31;5104404;28;20035;-62
2022/12/08 09:03:52;;;;;;;6.35;4.93;;;;;;;2.94;100.00;100797.50;5102607;27;20036;-60
2022/12/08 09:06:18;;;;;;;5.63;4.60;;;;;;;2.94;100.00;100797.50;5090197;28;20106;-60
2022/12/08 09:08:44;;;;;;;6.05;4.68;;;;;;;2.92;100.00;100794.97;5095345;28;20126;-60
2022/12/08 09:11:10;;;;;;;5.65;4.93;;;;;;;2.93;100.00;100801.22;5107460;28;20047;-59
2022/12/08 09:13:36;;;;;;;5.82;5.07;;;;;;;2.92;100.00;100791.41;5093826;28;20055;-60
2022/12/08 09:16:04;;;;;;;6.93;4.97;;;;;;;2.90;100.00;100788.91;5103129;28;20027;-63
2022/12/08 09:18:29;;;;;;;6.55;5.53;;;;;;;2.93;100.00;100788.50;5102154;28;20030;-61
2022/12/08 09:20:55;;;;;;;5.32;4.50;;;;;;;3.00;100.00;100784.06;5108897;28;20016;-61
2022/12/08 09:23:20;;;;;;;7.20;4.43;;;;;;;3.03;100.00;100789.09;5105809;28;20115;-60
2022/12/08 09:25:45;;;;;;;5.93;4.47;;;;;;;3.08;100.00;100783.13;5106398;28;20039;-60
2022/12/08 09:28:11;;;;;;;5.63;3.75;;;;;;;3.15;100.00;100775.97;5108367;28;20023;-61
2022/12/08 09:30:37;;;;;;;5.00;3.80;;;;;;;3.18;100.00;100778.28;5104379;28;20087;-60
2022/12/08 09:33:02;;;;;;;4.32;3.70;;;;;;;3.24;100.00;100779.41;5102709;28;20040;-61
2022/12/08 09:35:27;;;;;;;4.47;3.60;;;;;;;3.31;100.00;100780.38;5107050;28;20053;-61
2022/12/08 09:37:53;;;;;;;7.72;3.70;;;;;;;3.42;100.00;100781.78;5107501;28;20031;-60
2022/12/08 09:40:21;;;;;;;4.03;3.60;;;;;;;3.42;100.00;100777.19;5108564;28;20104;-61
2022/12/08 09:42:50;;;;;;;;;;;;;;;3.51;100.00;100776.09;5109600;28;20412;-61
2022/12/08 09:45:17;;;;;;;4.60;3.10;;;;;;;3.43;100.00;100773.44;5105094;28;19920;-60
2022/12/08 09:47:51;;;;;;;4.25;2.85;;;;;;;3.45;100.00;100770.53;5107232;28;20043;-61
2022/12/08 09:50:17;;;;;;;5.07;3.10;;;;;;;3.43;100.00;100770.75;5098103;28;20047;-60
2022/12/08 09:52:48;;;;;;;5.50;3.60;;;;;;;3.41;100.00;100783.66;5109786;28;20020;-61
2022/12/08 09:55:31;;;;;;;5.00;3.10;;;;;;;3.45;100.00;100773.25;5108509;28;20273;-62
2022/12/08 09:58:01;;;;;;;4.47;3.05;;;;;;;3.47;100.00;100774.78;5106163;28;20051;-61
2022/12/08 10:00:27;;;;;;;3.55;3.00;;;;;;;3.40;100.00;100776.56;5092479;28;20024;-61
2022/12/08 10:02:55;;;;;;;5.97;3.13;;;;;;;3.42;100.00;100776.38;5107234;28;20083;-60
2022/12/08 10:05:23;;;;;;;4.07;3.30;;;;;;;3.47;100.00;100779.38;5107616;28;20045;-61
2022/12/08 10:08:14;;;;;;;4.25;3.22;;;;;;;3.48;100.00;100768.31;5103188;28;20036;-60
2022/12/08 10:11:04;;;;;;;5.75;3.42;;;;;;;3.54;100.00;100764.84;5103605;28;20489;-60
2022/12/08 10:13:36;;;;;;;5.47;3.40;;;;;;;3.48;100.00;100771.03;5099890;28;20020;-61
2022/12/08 10:16:18;;;;;;;6.70;3.70;;;;;;;3.47;100.00;100766.63;5105024;28;20051;-61
2022/12/08 10:18:44;;;;;;;6.35;3.05;;;;;;;3.49;100.00;100764.56;5105845;28;20028;-61
2022/12/08 10:21:19;;;;;;;4.68;2.90;;;;;;;3.55;100.00;100765.72;5105785;28;20031;-61
2022/12/08 10:23:50;;;;;;;4.07;2.78;;;;;;;3.55;100.00;100769.28;5102678;28;20039;-61
2022/12/08 10:26:18;;;;;;;4.40;3.10;;;;;;;3.41;100.00;100761.94;5101385;28;20111;-61
2022/12/08 10:28:44;;;;;;;5.00;3.30;;;;;;;3.42;100.00;100762.78;5098007;28;20027;-61
2022/12/08 10:31:21;;;;;;;3.78;2.92;;;;;;;3.47;100.00;100755.78;5107657;28;20436;-60
2022/12/08 10:33:57;;;;;;;4.68;2.90;;;;;;;3.47;100.00;100754.94;5107010;28;20043;-61
2022/12/08 10:36:43;;;;;;;5.30;3.22;;;;;;;3.49;100.00;100753.69;5102137;28;20393;-60
2022/12/08 10:39:34;;;;;;;6.05;3.38;;;;;;;3.47;100.00;100753.06;5103672;28;20054;-60
2022/12/08 10:42:13;;;;;;;4.07;3.03;;;;;;;3.45;100.00;100752.41;5094911;28;20036;-60
2022/12/08 10:44:56;;;;;;;6.22;3.30;;;;;;;3.49;100.00;100748.28;5108660;28;20024;-61
2022/12/08 10:47:25;;;;;;;5.20;3.40;;;;;;;3.47;100.00;100747.63;5091205;28;20039;-61
2022/12/08 10:50:26;;;;;;;6.75;3.60;;;;;;;3.56;100.00;100749.22;5094439;28;20046;-62
2022/12/08 10:52:57;;;;;;;5.45;3.70;;;;;;;3.54;100.00;100743.13;5099129;28;20028;-61
2022/12/08 10:55:23;;;;;;;7.18;3.70;;;;;;;3.54;100.00;100748.53;5105092;28;20028;-61
2022/12/08 10:57:48;;;;;;;5.72;3.38;;;;;;;3.57;100.00;100734.59;5105904;28;20031;-61
2022/12/08 11:00:23;;;;;;;6.05;3.55;;;;;;;3.61;100.00;100743.22;5104794;28;20032;-60
2022/12/08 11:02:57;;;;;;;7.03;4.45;;;;;;;3.62;100.00;100740.31;5098225;28;20531;-61
2022/12/08 11:05:28;;;;;;;5.00;3.83;;;;;;;3.65;100.00;100741.84;5093358;28;20032;-61
2022/12/08 11:07:54;;;;;;;6.65;4.00;;;;;;;3.68;100.00;100733.28;5089245;28;20050;-61
2022/12/08 11:10:35;;;;;;;5.75;4.10;;;;;;;3.72;100.00;100739.19;5086608;28;20019;-61
2022/12/08 11:13:03;;;;;;;5.78;3.95;;;;;;;3.69;100.00;100734.13;5104145;28;20047;-61
2022/12/08 11:15:38;;;;;;;7.38;5.05;;;;;;;3.72;100.00;100733.75;5107733;28;20027;-60
2022/12/08 11:18:19;;;;;;;7.18;5.20;;;;;;;3.66;100.00;100724.50;5105816;28;20047;-60
2022/12/08 11:20:44;;;;;;;6.88;4.95;;;;;;;3.61;100.00;100727.78;5106050;28;20028;-61
2022/12/08 11:23:21;;;;;;;5.30;4.50;;;;;;;3.58;100.00;100725.44;5107590;28;20030;-61
2022/12/08 11:25:48;;;;;;;4.82;3.75;;;;;;;3.54;100.00;100726.81;5105386;28;20051;-61
2022/12/08 11:28:15;;;;;;;5.43;4.40;;;;;;;3.49;100.00;100729.25;5103310;28;20098;-61
2022/12/08 11:30:45;;;;;;;4.32;3.78;;;;;;;3.44;100.00;100725.44;5106776;28;20026;-61